Time;durP1;ratioP1;P1;durP2;ratioP2;P2;SDS_P1;SDS_P2;PMS_P1;PMS_P2;Temp;Humidity;BMP_temperature;BMP_pressure;BME280_temperature;BME280_humidity;BME280_pressure;Samples;Min_cycle;Max_cycle;Signal;HPM_P1;HPM_P2
2021/04/26 00:00:10;;;;;;;8.30;2.80;;;7.70;36.80;;;;;;5026550;28;20029;-78
2021/04/26 00:02:35;;;;;;;9.23;1.95;;;7.70;37.50;;;;;;5031452;28;20033;-78
2021/04/26 00:05:01;;;;;;;8.15;1.90;;;7.70;38.40;;;;;;5028349;28;20041;-79
2021/04/26 00:07:27;;;;;;;7.93;1.95;;;7.50;38.30;;;;;;5025527;28;20025;-79
2021/04/26 00:09:52;;;;;;;6.57;2.05;;;7.50;40.00;;;;;;5033033;28;20150;-78
2021/04/26 00:12:18;;;;;;;7.00;2.45;;;7.50;39.10;;;;;;5030629;28;20121;-79
2021/04/26 00:14:43;;;;;;;4.97;2.17;;;7.40;39.00;;;;;;5030348;28;20473;-78
2021/04/26 00:17:09;;;;;;;7.60;1.77;;;7.40;39.40;;;;;;5029402;28;20033;-78
2021/04/26 00:19:35;;;;;;;7.60;2.38;;;7.40;39.00;;;;;;5021472;28;20040;-79
2021/04/26 00:22:00;;;;;;;8.95;1.92;;;7.40;40.30;;;;;;5029184;28;20682;-77
2021/04/26 00:24:26;;;;;;;5.97;2.05;;;7.40;40.60;;;;;;5027100;28;20033;-78
2021/04/26 00:26:52;;;;;;;5.28;1.75;;;7.40;39.50;;;;;;5031148;28;20038;-78
2021/04/26 00:29:17;;;;;;;6.80;1.98;;;7.30;40.50;;;;;;5035459;28;20087;-78
2021/04/26 00:31:43;;;;;;;10.43;2.00;;;7.30;40.40;;;;;;5033270;28;20492;-78
2021/04/26 00:34:08;;;;;;;4.25;1.90;;;7.30;40.80;;;;;;5037857;28;20029;-79
2021/04/26 00:36:34;;;;;;;7.95;2.58;;;7.40;40.90;;;;;;5035170;28;20045;-78
2021/04/26 00:38:59;;;;;;;10.07;2.30;;;7.40;41.30;;;;;;5036524;28;20049;-79
2021/04/26 00:41:25;;;;;;;8.57;2.28;;;7.40;41.10;;;;;;5033287;28;20045;-79
2021/04/26 00:43:50;;;;;;;5.57;2.30;;;7.50;41.00;;;;;;5036986;28;20041;-79
2021/04/26 00:46:16;;;;;;;8.73;2.60;;;7.50;41.80;;;;;;5031762;28;20041;-79
2021/04/26 00:48:42;;;;;;;9.07;3.03;;;7.40;41.90;;;;;;5026291;28;20041;-79
2021/04/26 00:51:09;;;;;;;7.13;3.00;;;7.50;41.50;;;;;;5020816;28;20484;-77
2021/04/26 00:53:35;;;;;;;6.20;2.15;;;7.60;41.50;;;;;;5024718;28;20464;-78
2021/04/26 00:56:02;;;;;;;5.25;2.40;;;7.50;41.50;;;;;;5025880;28;20041;-78
2021/04/26 00:58:28;;;;;;;8.15;2.80;;;7.60;41.70;;;;;;5025486;28;21309;-78
2021/04/26 01:00:53;;;;;;;13.40;3.30;;;7.50;41.60;;;;;;5024591;28;20038;-78
2021/04/26 01:03:20;;;;;;;6.10;2.58;;;7.40;42.40;;;;;;5023248;28;20505;-76
2021/04/26 01:05:45;;;;;;;8.77;3.13;;;7.30;43.20;;;;;;5034457;28;20462;-77
2021/04/26 01:08:11;;;;;;;7.93;2.45;;;7.20;43.30;;;;;;5019418;28;21492;-79
2021/04/26 01:10:38;;;;;;;5.68;2.38;;;7.20;44.20;;;;;;5022346;28;20157;-77
2021/04/26 01:13:19;;;;;;;5.68;2.40;;;7.10;44.40;;;;;;5018971;28;20103;-77
2021/04/26 01:15:58;;;;;;;8.63;3.08;;;7.00;45.80;;;;;;5018728;28;20034;-78
2021/04/26 01:18:33;;;;;;;9.43;2.65;;;7.00;45.70;;;;;;5026791;28;20034;-77
2021/04/26 01:21:36;;;;;;;7.45;3.03;;;6.90;45.20;;;;;;5018936;28;20045;-78
2021/04/26 01:24:35;;;;;;;8.20;3.00;;;6.90;47.20;;;;;;5017843;28;20045;-77
2021/04/26 01:27:35;;;;;;;9.23;3.47;;;6.90;47.80;;;;;;5013143;28;20033;-77
2021/04/26 01:30:10;;;;;;;10.23;3.00;;;7.00;47.10;;;;;;5021265;28;20038;-76
2021/04/26 01:32:56;;;;;;;11.15;2.95;;;7.10;46.90;;;;;;5023861;28;20037;-77
2021/04/26 01:35:23;;;;;;;12.52;3.22;;;7.10;46.50;;;;;;5025455;28;20034;-78
2021/04/26 01:37:52;;;;;;;11.02;3.10;;;7.10;46.90;;;;;;5024983;28;20048;-77
2021/04/26 01:40:19;;;;;;;24.50;3.95;;;7.00;47.50;;;;;;5040993;28;20116;-79
2021/04/26 01:42:50;;;;;;;9.80;3.20;;;7.00;47.40;;;;;;5022883;28;20037;-79
2021/04/26 01:45:18;;;;;;;11.20;3.25;;;7.00;47.90;;;;;;5026666;28;20121;-75
2021/04/26 01:47:50;;;;;;;11.85;3.03;;;7.00;48.00;;;;;;5018027;28;20057;-77
2021/04/26 01:50:16;;;;;;;10.52;3.53;;;7.00;48.30;;;;;;5021857;28;20034;-77
2021/04/26 01:52:43;;;;;;;9.93;3.65;;;6.90;48.30;;;;;;5022070;28;20061;-77
2021/04/26 01:55:11;;;;;;;16.08;3.65;;;6.90;49.40;;;;;;5025883;28;20044;-77
2021/04/26 01:57:38;;;;;;;12.93;4.55;;;6.80;49.10;;;;;;5021257;28;20045;-78
2021/04/26 02:00:18;;;;;;;12.10;3.95;;;6.70;49.50;;;;;;5027717;28;20040;-77
2021/04/26 02:02:45;;;;;;;13.80;3.22;;;6.60;49.80;;;;;;5024992;28;20531;-77
2021/04/26 02:05:13;;;;;;;7.47;3.88;;;6.60;51.90;;;;;;5027137;28;20052;-77
2021/04/26 02:07:42;;;;;;;9.52;4.18;;;6.50;52.90;;;;;;5026131;28;20030;-77
2021/04/26 02:10:10;;;;;;;8.45;3.65;;;6.60;53.60;;;;;;5024078;28;20034;-79
2021/04/26 02:12:37;;;;;;;15.05;3.70;;;6.60;53.30;;;;;;5026559;28;20067;-77
2021/04/26 02:15:07;;;;;;;12.40;4.30;;;6.50;53.60;;;;;;5029564;28;20061;-77
2021/04/26 02:17:34;;;;;;;9.82;3.95;;;6.60;54.20;;;;;;5030332;28;20041;-77
2021/04/26 02:20:00;;;;;;;9.63;3.75;;;6.60;53.90;;;;;;5021871;28;20046;-77
2021/04/26 02:22:25;;;;;;;9.10;3.92;;;6.60;54.00;;;;;;5043214;28;20030;-78
2021/04/26 02:24:51;;;;;;;13.80;3.70;;;6.70;54.30;;;;;;5023124;28;20045;-77
2021/04/26 02:27:17;;;;;;;10.30;4.03;;;6.60;53.70;;;;;;5025442;28;20765;-77
2021/04/26 02:29:42;;;;;;;10.57;4.15;;;6.60;54.50;;;;;;5027348;28;20048;-78
2021/04/26 02:32:13;;;;;;;11.10;4.53;;;6.50;54.20;;;;;;5024726;28;20171;-77
2021/04/26 02:34:44;;;;;;;11.15;4.00;;;6.60;53.90;;;;;;5019195;28;20148;-78
2021/04/26 02:37:37;;;;;;;13.40;3.50;;;6.50;54.70;;;;;;5023471;28;20033;-77
2021/04/26 02:40:08;;;;;;;13.93;4.45;;;6.50;54.80;;;;;;5015381;28;20500;-77
2021/04/26 02:42:39;;;;;;;9.93;3.92;;;6.60;54.30;;;;;;5013194;28;20499;-77
2021/04/26 02:45:07;;;;;;;11.57;3.90;;;6.60;53.70;;;;;;5017206;28;20044;-77
2021/04/26 02:47:33;;;;;;;10.13;4.05;;;6.60;53.70;;;;;;5019020;28;20121;-77
2021/04/26 02:50:02;;;;;;;14.45;4.45;;;6.50;54.40;;;;;;5018520;28;20438;-77
2021/04/26 02:52:28;;;;;;;10.75;4.28;;;6.60;54.20;;;;;;5015036;28;20037;-77
2021/04/26 02:54:55;;;;;;;19.90;4.15;;;6.60;53.80;;;;;;5022034;28;20116;-77
2021/04/26 02:57:21;;;;;;;14.48;4.13;;;6.60;54.10;;;;;;5020120;28;20042;-78
2021/04/26 02:59:48;;;;;;;12.95;4.00;;;6.50;53.80;;;;;;5023946;28;20101;-78
2021/04/26 03:02:15;;;;;;;16.90;4.57;;;6.50;53.90;;;;;;5022440;28;20041;-78
2021/04/26 03:04:41;;;;;;;9.52;3.80;;;6.50;54.30;;;;;;5024893;28;20078;-77
2021/04/26 03:07:07;;;;;;;8.80;4.20;;;6.40;54.70;;;;;;5020816;28;20037;-77
2021/04/26 03:09:35;;;;;;;10.45;4.03;;;6.40;54.90;;;;;;5026468;28;20034;-78
2021/04/26 03:12:00;;;;;;;9.50;4.32;;;6.30;54.90;;;;;;5023517;28;20489;-77
2021/04/26 03:14:29;;;;;;;11.75;4.32;;;6.30;56.00;;;;;;5024808;28;20056;-77
2021/04/26 03:16:55;;;;;;;11.23;4.28;;;6.40;54.90;;;;;;5039757;28;20593;-78
2021/04/26 03:19:21;;;;;;;14.02;4.95;;;6.30;56.70;;;;;;5029282;28;20046;-77
2021/04/26 03:21:49;;;;;;;8.68;4.07;;;6.20;56.20;;;;;;5020131;28;20034;-77
2021/04/26 03:24:16;;;;;;;14.23;4.75;;;6.20;56.20;;;;;;5026381;28;20500;-77
2021/04/26 03:26:44;;;;;;;15.10;4.68;;;6.20;56.00;;;;;;5023034;28;20033;-77
2021/04/26 03:29:14;;;;;;;15.27;4.65;;;6.20;56.20;;;;;;5022037;28;20041;-77
2021/04/26 03:31:40;;;;;;;13.65;4.50;;;6.20;55.70;;;;;;5021918;28;20044;-77
2021/04/26 03:34:08;;;;;;;15.98;4.35;;;6.20;55.60;;;;;;5021995;28;20492;-77
2021/04/26 03:36:36;;;;;;;11.35;3.78;;;6.20;55.60;;;;;;5018890;28;20148;-77
2021/04/26 03:39:03;;;;;;;9.75;4.15;;;6.20;54.80;;;;;;5021237;28;20041;-78
2021/04/26 03:41:29;;;;;;;18.08;4.38;;;6.10;55.20;;;;;;5020246;28;20045;-77
2021/04/26 03:43:55;;;;;;;13.40;4.65;;;6.10;54.10;;;;;;5022497;28;20054;-78
2021/04/26 03:46:21;;;;;;;9.20;4.10;;;6.10;54.00;;;;;;5021580;28;20496;-77
2021/04/26 03:48:48;;;;;;;13.80;3.60;;;6.10;53.80;;;;;;5028760;28;20144;-79
2021/04/26 03:51:13;;;;;;;11.38;4.30;;;6.10;53.80;;;;;;5016452;28;20052;-77
2021/04/26 03:53:39;;;;;;;12.55;4.30;;;6.20;53.30;;;;;;5027991;28;20041;-79
2021/04/26 03:56:05;;;;;;;12.18;5.63;;;6.20;53.50;;;;;;5026613;28;20034;-79
2021/04/26 03:58:30;;;;;;;6.63;3.65;;;6.10;51.90;;;;;;5025694;28;20038;-78
2021/04/26 04:00:56;;;;;;;16.48;3.97;;;6.10;52.70;;;;;;5040465;28;20412;-78
2021/04/26 04:03:21;;;;;;;17.50;4.80;;;6.10;52.10;;;;;;5022191;28;20520;-77
2021/04/26 04:05:47;;;;;;;11.50;4.35;;;6.00;52.60;;;;;;5027907;28;20037;-78
2021/04/26 04:08:13;;;;;;;12.63;3.58;;;6.00;52.40;;;;;;5024009;28;20042;-78
2021/04/26 04:10:38;;;;;;;20.80;4.63;;;5.90;52.20;;;;;;5034693;28;20605;-78
2021/04/26 04:13:04;;;;;;;10.68;4.28;;;5.90;51.70;;;;;;5042859;28;20026;-78
2021/04/26 04:15:29;;;;;;;13.90;3.92;;;5.90;51.80;;;;;;5045534;28;20369;-78
2021/04/26 04:17:55;;;;;;;13.35;4.15;;;5.90;51.60;;;;;;5034178;28;20037;-78
2021/04/26 04:20:20;;;;;;;9.70;3.90;;;5.90;51.60;;;;;;5032994;28;20037;-78
2021/04/26 04:22:46;;;;;;;11.43;4.10;;;5.80;51.70;;;;;;5028290;28;20041;-78
2021/04/26 04:25:12;;;;;;;11.00;3.78;;;5.90;51.00;;;;;;5029292;28;20571;-79
2021/04/26 04:27:38;;;;;;;12.43;4.18;;;5.80;51.30;;;;;;5032511;28;20044;-78
2021/04/26 04:30:07;;;;;;;9.73;3.60;;;5.80;52.20;;;;;;5035009;28;20099;-77
2021/04/26 04:32:32;;;;;;;8.30;3.42;;;5.80;52.90;;;;;;5032442;28;20916;-77
2021/04/26 04:34:58;;;;;;;11.20;3.88;;;5.70;53.60;;;;;;5056435;28;20095;-77
2021/04/26 04:37:24;;;;;;;14.15;4.55;;;5.70;53.40;;;;;;5035100;28;20045;-79
2021/04/26 04:39:50;;;;;;;16.23;4.25;;;5.70;53.70;;;;;;5030930;28;20076;-77
2021/04/26 04:42:15;;;;;;;10.40;3.92;;;5.70;54.20;;;;;;5031803;28;20041;-78
2021/04/26 04:44:41;;;;;;;10.95;4.80;;;5.60;55.10;;;;;;5030343;28;20026;-77
2021/04/26 04:47:06;;;;;;;15.10;4.63;;;5.60;55.50;;;;;;5042867;28;20034;-76
2021/04/26 04:49:32;;;;;;;8.90;4.25;;;5.60;56.10;;;;;;5035079;28;20033;-77
2021/04/26 04:51:58;;;;;;;16.20;4.43;;;5.50;57.00;;;;;;5030145;28;20062;-79
2021/04/26 04:54:23;;;;;;;9.48;4.47;;;5.50;57.70;;;;;;5032414;28;20038;-76
2021/04/26 04:56:53;;;;;;;13.32;4.63;;;5.60;58.70;;;;;;5049935;28;20125;-78
2021/04/26 04:59:19;;;;;;;15.93;4.38;;;5.50;58.70;;;;;;5040416;28;20021;-78
2021/04/26 05:01:46;;;;;;;10.80;4.25;;;5.60;59.40;;;;;;5033008;28;20052;-77
2021/04/26 05:04:12;;;;;;;15.20;5.80;;;5.60;59.70;;;;;;5028612;28;20132;-81
2021/04/26 05:06:38;;;;;;;15.45;5.07;;;5.60;59.30;;;;;;5013191;28;20141;-78
2021/04/26 05:09:05;;;;;;;13.82;4.68;;;5.60;58.90;;;;;;5020503;28;20772;-78
2021/04/26 05:11:31;;;;;;;16.02;3.97;;;5.60;59.30;;;;;;5021003;28;20116;-77
2021/04/26 05:13:57;;;;;;;11.95;4.28;;;5.70;57.00;;;;;;5019819;28;20120;-77
2021/04/26 05:16:26;;;;;;;11.00;4.38;;;5.70;55.10;;;;;;5023617;28;20041;-77
2021/04/26 05:18:51;;;;;;;10.70;3.47;;;5.80;54.60;;;;;;5022985;28;20514;-76
2021/04/26 05:21:17;;;;;;;10.90;4.43;;;5.80;54.30;;;;;;5017530;28;20052;-76
2021/04/26 05:23:43;;;;;;;9.90;4.43;;;5.80;53.40;;;;;;5018847;28;20057;-76
2021/04/26 05:26:08;;;;;;;11.90;4.55;;;5.90;53.50;;;;;;5021805;28;20041;-76
2021/04/26 05:28:34;;;;;;;11.65;3.63;;;5.90;53.00;;;;;;5016418;28;20129;-77
2021/04/26 05:30:59;;;;;;;12.85;3.83;;;6.00;52.00;;;;;;5020159;28;20428;-77
2021/04/26 05:33:25;;;;;;;9.95;3.92;;;6.10;51.80;;;;;;5035010;28;20052;-77
2021/04/26 05:35:50;;;;;;;14.77;4.32;;;6.20;51.10;;;;;;5023047;28;20121;-77
2021/04/26 05:38:17;;;;;;;12.73;4.18;;;6.20;50.30;;;;;;5022568;28;20162;-76
2021/04/26 05:40:47;;;;;;;10.55;4.15;;;6.30;50.00;;;;;;5021016;28;20407;-78
2021/04/26 05:43:13;;;;;;;11.10;4.30;;;6.40;50.20;;;;;;5023529;28;20400;-78
2021/04/26 05:45:40;;;;;;;6.88;3.50;;;6.50;50.00;;;;;;5042125;28;20037;-78
2021/04/26 05:48:06;;;;;;;14.88;4.13;;;6.60;48.60;;;;;;5041167;28;20045;-78
2021/04/26 05:50:31;;;;;;;9.48;4.55;;;6.70;48.80;;;;;;5035982;28;20052;-80
2021/04/26 05:52:58;;;;;;;16.33;4.82;;;6.80;47.30;;;;;;5037165;28;20033;-81
2021/04/26 05:55:24;;;;;;;13.27;4.15;;;6.80;46.90;;;;;;5029582;28;20050;-79
2021/04/26 05:57:49;;;;;;;10.40;4.18;;;6.90;46.60;;;;;;5025286;28;20041;-77
2021/04/26 06:00:16;;;;;;;11.73;4.13;;;6.90;46.00;;;;;;5020213;28;20115;-77
2021/04/26 06:02:41;;;;;;;9.68;4.05;;;7.00;45.20;;;;;;5026542;28;20690;-79
2021/04/26 06:05:08;;;;;;;11.80;4.47;;;7.20;45.00;;;;;;5033853;28;20034;-78
2021/04/26 06:07:34;;;;;;;15.75;4.65;;;7.30;43.60;;;;;;5029300;28;20042;-78
2021/04/26 06:10:00;;;;;;;22.48;3.95;;;7.30;43.60;;;;;;5030278;28;20403;-78
2021/04/26 06:12:25;;;;;;;11.57;4.53;;;7.40;43.10;;;;;;5032016;28;20044;-77
2021/04/26 06:14:51;;;;;;;13.45;3.85;;;7.50;41.60;;;;;;5033858;28;20117;-78
2021/04/26 06:17:16;;;;;;;8.35;4.03;;;7.50;41.70;;;;;;5029681;28;20099;-78
2021/04/26 06:19:42;;;;;;;10.23;3.92;;;7.70;41.60;;;;;;5034898;28;20049;-78
2021/04/26 06:22:07;;;;;;;9.98;4.13;;;7.70;41.20;;;;;;5036761;28;20132;-78
2021/04/26 06:24:33;;;;;;;7.07;3.45;;;7.70;40.40;;;;;;5031747;28;20041;-79
2021/04/26 06:26:59;;;;;;;12.38;4.45;;;7.70;40.60;;;;;;5035011;28;20048;-79
2021/04/26 06:29:24;;;;;;;12.05;4.32;;;7.90;40.40;;;;;;5027324;28;20038;-79
2021/04/26 06:31:50;;;;;;;9.10;4.47;;;7.80;39.30;;;;;;5034169;28;20037;-78
2021/04/26 06:34:16;;;;;;;14.27;4.55;;;7.90;40.80;;;;;;5029696;28;20042;-78
2021/04/26 06:36:41;;;;;;;11.35;4.45;;;7.90;39.90;;;;;;5033170;28;20387;-79
2021/04/26 06:39:07;;;;;;;17.30;4.90;;;7.90;39.00;;;;;;5031506;28;20087;-79
2021/04/26 06:41:32;;;;;;;21.33;4.50;;;8.10;39.40;;;;;;5035289;28;20132;-79
2021/04/26 06:43:58;;;;;;;9.73;3.75;;;8.20;38.90;;;;;;5031210;28;20113;-78
2021/04/26 06:46:24;;;;;;;17.00;4.35;;;8.40;38.40;;;;;;5022356;28;20041;-77
2021/04/26 06:48:49;;;;;;;6.75;3.55;;;8.70;37.30;;;;;;5029561;28;20106;-78
2021/04/26 06:51:15;;;;;;;8.23;4.40;;;9.10;34.90;;;;;;5028896;28;20041;-78
2021/04/26 06:53:40;;;;;;;16.17;4.10;;;9.70;33.80;;;;;;5027194;28;20068;-77
2021/04/26 06:56:06;;;;;;;10.82;4.20;;;10.20;30.00;;;;;;5029697;28;20099;-78
2021/04/26 06:58:31;;;;;;;11.73;3.63;;;10.00;29.50;;;;;;5030192;28;20095;-77
2021/04/26 07:00:57;;;;;;;9.00;4.15;;;10.30;29.30;;;;;;5027689;28;20037;-78
2021/04/26 07:03:22;;;;;;;16.00;5.15;;;10.60;29.90;;;;;;5027249;28;20124;-79
2021/04/26 07:05:48;;;;;;;11.02;4.85;;;10.30;29.60;;;;;;5023421;28;20111;-78
2021/04/26 07:08:14;;;;;;;14.82;4.40;;;10.60;29.60;;;;;;5026440;28;20037;-79
2021/04/26 07:10:39;;;;;;;15.10;4.18;;;10.50;28.70;;;;;;5023299;28;22519;-79
2021/04/26 07:13:05;;;;;;;16.48;4.55;;;10.40;28.60;;;;;;5025203;28;20050;-80
2021/04/26 07:15:31;;;;;;;16.35;4.60;;;10.50;30.10;;;;;;5035284;28;20072;-78
2021/04/26 07:17:57;;;;;;;13.27;5.05;;;10.80;28.80;;;;;;5028884;28;20038;-77
2021/04/26 07:20:22;;;;;;;15.02;4.13;;;10.90;28.10;;;;;;5037444;28;20037;-79
2021/04/26 07:22:48;;;;;;;16.35;3.90;;;11.10;27.90;;;;;;5036887;28;20057;-79
2021/04/26 07:25:14;;;;;;;11.02;3.65;;;11.30;27.50;;;;;;5035745;28;20038;-78
2021/04/26 07:27:40;;;;;;;18.65;3.70;;;11.60;26.70;;;;;;5035574;28;20056;-79
2021/04/26 07:30:07;;;;;;;11.88;3.78;;;11.80;26.70;;;;;;5037854;28;20089;-79
2021/04/26 07:32:33;;;;;;;6.88;3.65;;;11.80;26.80;;;;;;5037911;28;20052;-78
2021/04/26 07:34:58;;;;;;;14.52;4.50;;;11.40;25.90;;;;;;5033258;28;20033;-79
2021/04/26 07:37:25;;;;;;;7.63;4.22;;;11.80;25.80;;;;;;5038036;28;20114;-78
2021/04/26 07:39:51;;;;;;;13.10;4.55;;;11.80;25.50;;;;;;5029928;28;20041;-78
2021/04/26 07:42:17;;;;;;;14.43;4.13;;;12.00;25.20;;;;;;5033795;28;20037;-80
2021/04/26 07:44:43;;;;;;;11.10;3.85;;;11.80;25.00;;;;;;5024842;28;20087;-79
2021/04/26 07:47:09;;;;;;;12.23;4.22;;;12.00;25.00;;;;;;5030325;28;20030;-80
2021/04/26 07:49:35;;;;;;;8.70;4.07;;;12.00;25.50;;;;;;5029706;28;20413;-79
2021/04/26 07:52:00;;;;;;;12.88;4.80;;;12.20;24.80;;;;;;5032093;28;20515;-79
2021/04/26 07:54:26;;;;;;;9.13;4.47;;;12.50;24.30;;;;;;5031496;28;20034;-78
2021/04/26 07:56:52;;;;;;;9.32;4.28;;;12.40;23.60;;;;;;5037114;28;20048;-78
2021/04/26 07:59:19;;;;;;;16.23;4.10;;;12.10;24.50;;;;;;5037060;28;20060;-79
2021/04/26 08:01:46;;;;;;;8.63;4.00;;;12.00;24.10;;;;;;5038461;28;20055;-77
2021/04/26 08:04:11;;;;;;;11.63;4.45;;;12.20;24.20;;;;;;5032431;28;20132;-78
2021/04/26 08:06:38;;;;;;;10.18;4.20;;;12.60;24.10;;;;;;5034602;28;20066;-79
2021/04/26 08:09:04;;;;;;;11.57;4.20;;;12.40;24.30;;;;;;5036553;28;20731;-79
2021/04/26 08:11:29;;;;;;;13.15;4.00;;;12.60;24.20;;;;;;5038248;28;20038;-78
2021/04/26 08:13:55;;;;;;;9.50;4.80;;;12.30;23.40;;;;;;5041463;28;20045;-78
2021/04/26 08:16:20;;;;;;;8.90;4.13;;;12.10;23.60;;;;;;5044814;28;20042;-78
2021/04/26 08:18:46;;;;;;;10.70;3.95;;;12.10;24.90;;;;;;5035432;28;20045;-78
2021/04/26 08:21:11;;;;;;;9.43;3.95;;;12.50;25.10;;;;;;5036527;28;20095;-79
2021/04/26 08:23:39;;;;;;;9.00;4.43;;;12.80;24.20;;;;;;5027833;28;20377;-79
2021/04/26 08:26:05;;;;;;;12.68;4.30;;;12.50;23.40;;;;;;5032835;28;20041;-78
2021/04/26 08:28:35;;;;;;;19.85;6.47;;;12.60;23.70;;;;;;5033383;28;20077;-77
2021/04/26 08:31:01;;;;;;;16.95;4.65;;;12.30;23.20;;;;;;5032663;28;20060;-77
2021/04/26 08:33:28;;;;;;;15.02;5.30;;;12.50;23.60;;;;;;5033290;28;20105;-77
2021/04/26 08:35:54;;;;;;;9.25;4.32;;;12.70;23.80;;;;;;5036517;28;20108;-77
2021/04/26 08:38:20;;;;;;;11.18;4.63;;;12.80;23.00;;;;;;5032498;28;20017;-77
2021/04/26 08:40:45;;;;;;;17.88;5.22;;;12.90;23.40;;;;;;5034581;28;20068;-77
2021/04/26 08:43:11;;;;;;;11.50;4.30;;;13.00;23.50;;;;;;5040322;28;20030;-77
2021/04/26 08:45:36;;;;;;;7.55;4.05;;;13.30;22.70;;;;;;5036900;28;20114;-77
2021/04/26 08:48:03;;;;;;;19.50;4.80;;;14.00;22.70;;;;;;5031371;28;20037;-77
2021/04/26 08:50:30;;;;;;;11.15;4.45;;;13.70;22.50;;;;;;5034630;28;20041;-77
2021/04/26 08:52:56;;;;;;;13.85;5.28;;;14.00;22.20;;;;;;5041297;28;20041;-78
2021/04/26 08:55:22;;;;;;;20.33;3.95;;;14.60;21.30;;;;;;5039200;28;20048;-77
2021/04/26 08:57:49;;;;;;;14.77;4.15;;;14.80;20.50;;;;;;5036119;28;20052;-77
2021/04/26 09:00:16;;;;;;;11.93;4.63;;;15.20;20.30;;;;;;5036137;28;20391;-78
2021/04/26 09:02:54;;;;;;;14.38;4.07;;;15.50;19.60;;;;;;5035335;28;20064;-78
2021/04/26 09:05:37;;;;;;;11.18;4.55;;;15.80;18.00;;;;;;5026780;28;20033;-77
2021/04/26 09:08:05;;;;;;;9.43;4.55;;;16.10;18.00;;;;;;5027827;28;20035;-80
2021/04/26 09:10:50;;;;;;;13.60;4.47;;;16.40;17.70;;;;;;5021482;28;20128;-80
2021/04/26 09:13:45;;;;;;;10.73;4.65;;;17.00;17.50;;;;;;5030329;28;20033;-77
2021/04/26 09:16:19;;;;;;;;;;;17.00;16.30;;;;;;5027166;28;20030;-77
2021/04/26 09:18:44;;;;;;;13.13;4.90;;;17.30;16.10;;;;;;5022390;28;19925;-80
2021/04/26 09:21:28;;;;;;;13.88;4.97;;;17.70;15.40;;;;;;5031608;28;20048;-79
2021/04/26 09:24:33;;;;;;;11.30;4.68;;;18.80;14.90;;;;;;5036192;28;20053;-77
2021/04/26 09:27:06;;;;;;;13.82;4.78;;;19.70;13.60;;;;;;4995881;28;20038;-79
2021/04/26 09:29:33;;;;;;;11.20;5.68;;;19.20;13.30;;;;;;5031283;28;20038;-81
2021/04/26 09:32:01;;;;;;;13.10;3.90;;;19.90;12.90;;;;;;5031840;28;20148;-77
2021/04/26 09:34:42;;;;;;;11.27;4.55;;;20.40;11.90;;;;;;5030762;28;20048;-79
2021/04/26 09:37:12;;;;;;;12.50;4.85;;;20.10;13.60;;;;;;5026722;28;20065;-80
2021/04/26 09:39:56;;;;;;;9.55;4.25;;;19.20;12.80;;;;;;5027449;28;20076;-77
2021/04/26 09:42:45;;;;;;;13.75;4.50;;;19.30;12.70;;;;;;5029459;28;20044;-80
2021/04/26 09:45:21;;;;;;;12.45;4.50;;;19.60;12.80;;;;;;5032861;28;20116;-79
2021/04/26 09:47:48;;;;;;;9.32;4.32;;;20.40;13.00;;;;;;5036273;28;20910;-78
2021/04/26 09:50:14;;;;;;;22.00;4.57;;;21.10;12.10;;;;;;5039414;28;20122;-78
2021/04/26 09:52:40;;;;;;;8.65;3.83;;;20.50;11.70;;;;;;5024444;28;20061;-79
2021/04/26 09:55:06;;;;;;;8.18;3.90;;;20.60;11.70;;;;;;5035974;28;20044;-79
2021/04/26 09:57:34;;;;;;;11.07;4.20;;;21.50;11.60;;;;;;5026393;28;20052;-79
2021/04/26 10:00:00;;;;;;;9.52;4.30;;;20.80;11.10;;;;;;5021137;28;20063;-79
2021/04/26 10:02:26;;;;;;;17.60;5.28;;;21.10;11.30;;;;;;5026620;28;20033;-78
2021/04/26 10:04:52;;;;;;;13.45;4.80;;;18.80;11.30;;;;;;5028054;28;20030;-78
2021/04/26 10:07:18;;;;;;;10.57;4.80;;;19.90;13.30;;;;;;5028872;28;20048;-79
2021/04/26 10:09:45;;;;;;;12.43;4.32;;;20.60;12.50;;;;;;5032697;28;20038;-79
2021/04/26 10:12:13;;;;;;;9.25;4.35;;;20.80;11.60;;;;;;5026907;28;20040;-78
2021/04/26 10:14:42;;;;;;;10.35;4.40;;;21.10;11.80;;;;;;5026762;28;20034;-86
2021/04/26 10:17:11;;;;;;;9.88;4.45;;;21.20;11.50;;;;;;5035133;28;20071;-87
2021/04/26 10:19:38;;;;;;;11.23;4.32;;;22.10;10.90;;;;;;5017369;28;20030;-83
2021/04/26 10:22:05;;;;;;;6.82;4.00;;;22.10;9.80;;;;;;5027487;28;20179;-84
2021/04/26 10:24:32;;;;;;;7.90;4.20;;;20.30;10.80;;;;;;5031108;28;20040;-84
2021/04/26 10:27:01;;;;;;;15.05;4.30;;;21.20;10.70;;;;;;5034859;28;20091;-85
2021/04/26 10:29:34;;;;;;;10.68;4.22;;;19.70;10.50;;;;;;5033820;28;20041;-80
2021/04/26 10:32:21;;;;;;;10.18;4.00;;;19.20;12.10;;;;;;5041943;28;20041;-79
2021/04/26 10:34:47;;;;;;;13.40;4.50;;;20.90;11.30;;;;;;5036051;28;20042;-80
2021/04/26 10:37:18;;;;;;;9.50;3.83;;;21.80;11.00;;;;;;5057471;28;20037;-82
2021/04/26 10:39:58;;;;;;;12.13;4.95;;;22.70;10.10;;;;;;5043176;28;20034;-84
2021/04/26 10:42:34;;;;;;;13.00;4.25;;;23.20;9.60;;;;;;5040114;28;20049;-82
2021/04/26 10:45:03;;;;;;;12.35;4.43;;;22.80;8.80;;;;;;5029334;28;20099;-81
2021/04/26 10:47:31;;;;;;;9.18;4.30;;;22.80;9.40;;;;;;5024877;28;20134;-79
2021/04/26 10:50:00;;;;;;;10.55;4.63;;;22.60;9.20;;;;;;5032243;28;20097;-81
2021/04/26 10:52:29;;;;;;;9.52;4.38;;;23.10;9.40;;;;;;5026881;28;20144;-81
2021/04/26 10:55:08;;;;;;;12.07;4.10;;;23.80;8.20;;;;;;5035063;28;20029;-81
2021/04/26 10:57:42;;;;;;;10.15;4.15;;;23.00;9.20;;;;;;5019414;28;20433;-83
2021/04/26 11:00:22;;;;;;;12.80;4.30;;;23.20;9.30;;;;;;5026909;28;20057;-85
2021/04/26 11:03:06;;;;;;;11.90;4.47;;;22.60;9.50;;;;;;5027165;28;20034;-83
2021/04/26 11:05:40;;;;;;;11.73;4.82;;;22.10;9.40;;;;;;5029360;28;20405;-84
2021/04/26 11:10:40;;;;;;;23.17;4.28;;;22.80;9.50;;;;;;5028861;28;20064;-83
2021/04/26 11:13:31;;;;;;;8.80;4.35;;;22.70;8.70;;;;;;5029411;28;20091;-84
2021/04/26 11:16:05;;;;;;;10.75;4.85;;;21.00;10.00;;;;;;5032944;28;20033;-84
2021/04/26 11:18:32;;;;;;;;;;;20.60;9.90;;;;;;5033429;28;20029;-83
2021/04/26 11:21:29;;;;;;;13.10;4.85;;;19.90;10.70;;;;;;5028390;28;19984;-83
2021/04/26 11:23:56;;;;;;;16.75;4.65;;;21.20;11.20;;;;;;4996853;28;20049;-82
2021/04/26 11:26:26;;;;;;;10.40;4.43;;;22.10;10.70;;;;;;5026798;28;20068;-83
2021/04/26 11:29:04;;;;;;;11.80;4.50;;;22.30;9.80;;;;;;5031846;28;20038;-82
2021/04/26 11:31:56;;;;;;;12.45;6.07;;;21.70;9.50;;;;;;5025759;28;20845;-83
2021/04/26 11:34:22;;;;;;;14.52;4.20;;;21.80;10.00;;;;;;5033200;28;20110;-83
2021/04/26 11:37:06;;;;;;;13.85;4.28;;;22.90;9.30;;;;;;5029050;28;20033;-84
2021/04/26 11:39:33;;;;;;;12.00;4.45;;;22.80;8.50;;;;;;5017200;28;20057;-82
2021/04/26 11:41:59;;;;;;;14.25;5.00;;;22.70;9.50;;;;;;5030786;28;20037;-86
2021/04/26 11:44:34;;;;;;;9.13;4.50;;;23.50;8.60;;;;;;5030562;28;20693;-84
2021/04/26 11:47:03;;;;;;;10.95;4.35;;;23.30;8.00;;;;;;5031455;28;20038;-83
2021/04/26 11:49:33;;;;;;;12.35;3.97;;;23.60;9.30;;;;;;5029284;28;20101;-84
2021/04/26 11:51:59;;;;;;;11.45;3.60;;;24.20;8.00;;;;;;5031261;28;20045;-84
2021/04/26 11:54:27;;;;;;;8.55;4.20;;;24.30;8.40;;;;;;5026859;28;20045;-85
2021/04/26 11:57:04;;;;;;;12.95;3.75;;;24.20;7.70;;;;;;5036017;28;20030;-84
2021/04/26 11:59:30;;;;;;;7.22;4.00;;;23.40;7.50;;;;;;5031488;28;20034;-84
2021/04/26 12:01:57;;;;;;;8.88;4.43;;;23.20;7.40;;;;;;5033858;28;20049;-83
2021/04/26 12:04:33;;;;;;;6.20;4.13;;;23.80;8.10;;;;;;5026979;28;20486;-85
2021/04/26 12:07:04;;;;;;;10.82;4.40;;;23.80;7.80;;;;;;5042918;28;20116;-86
2021/04/26 12:09:30;;;;;;;11.27;3.90;;;24.40;6.80;;;;;;5029986;28;20048;-83
2021/04/26 12:12:00;;;;;;;7.80;4.93;;;24.50;7.30;;;;;;5039005;28;20053;-84
2021/04/26 12:14:26;;;;;;;10.32;3.40;;;23.80;7.50;;;;;;5030268;28;20053;-83
2021/04/26 12:16:52;;;;;;;9.32;3.75;;;23.50;7.40;;;;;;5025689;28;20044;-84
2021/04/26 12:19:38;;;;;;;9.38;4.43;;;24.10;7.80;;;;;;5022825;28;20501;-85
2021/04/26 12:22:04;;;;;;;12.80;4.18;;;24.90;6.90;;;;;;5027810;28;20046;-85
2021/04/26 12:24:29;;;;;;;8.50;3.63;;;24.30;6.40;;;;;;5031367;28;20044;-85
2021/04/26 12:26:55;;;;;;;12.32;3.88;;;23.60;5.10;;;;;;5030906;28;20034;-84
2021/04/26 12:29:28;;;;;;;14.18;3.67;;;24.20;6.10;;;;;;5035970;28;20067;-86
2021/04/26 12:32:14;;;;;;;7.97;3.45;;;24.20;6.40;;;;;;5043567;28;20557;-87
2021/04/26 12:34:50;;;;;;;11.52;3.55;;;24.50;6.50;;;;;;5041121;28;20034;-85
2021/04/26 12:37:17;;;;;;;11.20;3.83;;;24.50;6.40;;;;;;5028931;28;20034;-86
2021/04/26 12:39:43;;;;;;;9.05;3.58;;;24.70;5.80;;;;;;5029764;28;20045;-84
2021/04/26 12:42:14;;;;;;;8.25;3.30;;;24.00;6.00;;;;;;5026727;28;20041;-85
2021/04/26 12:44:41;;;;;;;11.45;3.95;;;24.20;6.40;;;;;;5041656;28;20407;-84
2021/04/26 12:47:21;;;;;;;10.45;3.80;;;24.10;6.40;;;;;;5033210;28;20029;-85
2021/04/26 12:49:48;;;;;;;8.55;3.92;;;23.90;7.10;;;;;;5039245;28;20033;-83
2021/04/26 12:52:17;;;;;;;11.43;3.75;;;23.70;7.00;;;;;;5038812;28;20045;-82
2021/04/26 12:55:08;;;;;;;10.13;4.40;;;23.60;6.50;;;;;;5034511;28;20034;-83
2021/04/26 12:57:34;;;;;;;12.02;4.50;;;22.10;6.40;;;;;;5031603;28;20045;-84